Hlavní strana
METAR-TAF:

METAR-TAF

Letiště :

Tupelo Regional Airport (C.D. Lemons Field)

Tupelo, Mississippi, Spojené státy americké

zeměpisná šířka: 34-16-05N, zeměpisná délka: 088-46-12W, výška: 106 m

Aktuální stav počasí

Zpráva byla vytvořena před 41 minutami, v 00:53 UTC
Severoseverozápadní vítr 9 kt
Teplota 15°C
Vlhkost vzduchu 67%
Tlak 1021 hPa
Viditelnost: 16.1 km
Jasno

METAR: KTUP 190053Z 33009KT 10SM CLR 15/09 A3016 RMK AO2 SLP211 T01500089 $

Čas: 19:34 (01:34 UTC)

Předpověď počasí

Zpráva byla vytvořena před 2 hodinami a 8 minutami, v 23:26 UTC
Předpověď platná od 19 v 00 UTC do 19 v 24 UTC
Severoseverozápadní vítr 6 kt
Viditelnost: 10 km
Oblačno až skoro zataženo ve výšce 4000 ft
Zataženo ve výšce 10000 ft
Od 19 v 0600 UTC
Severní vítr 8 kt
Viditelnost: 10 km
Skoro jasno ve výšce 25000 ft
Od 19 v 1400 UTC
Severní vítr 12 kt s nárazy do 20 kt
Viditelnost: 10 km
Jasno

TAF: KTUP 182326Z 1900/1924 34006KT P6SM BKN040 OVC100 FM190600 35008KT P6SM FEW250 FM191400 01012G20KT P6SM SKC

Stav a předpovědi počasí z více než 4 000 letišť (zprávy METAR a TAF).

Červené a žluté tečky na mapě představují dostupné meteorologické stanice.

Když kurzor umístíte na tečku, zobrazí se název stanice.

Pak kliknutím zobrazíte stav a předpověď počasí.

Chcete-li změnit mapu, kliknutím na zelené tlačítko se znaménkem +mapu přiblížíte, kliknutím na zelené tlačítko se znaménkem – mapu oddálíte a kliknutím na zelené šipky přejdete na sousední mapy.


METAR-TAF: